Time;durP1;ratioP1;P1;durP2;ratioP2;P2;SDS_P1;SDS_P2;PMS_P1;PMS_P2;Temp;Humidity;BMP_temperature;BMP_pressure;BME280_temperature;BME280_humidity;BME280_pressure;Samples;Min_cycle;Max_cycle;Signal;HPM_P1;HPM_P2
2022/10/13 00:00:09;;;;;;;26.20;11.77;;;;;;;10.01;100.00;101645.09;5056312;28;20635;-80
2022/10/13 00:02:35;;;;;;;25.77;12.15;;;;;;;9.91;100.00;101633.84;5041260;28;20052;-79
2022/10/13 00:05:00;;;;;;;21.83;11.68;;;;;;;10.01;100.00;101636.00;5058425;28;20128;-79
2022/10/13 00:07:25;;;;;;;24.17;12.00;;;;;;;10.05;100.00;101629.34;5058760;28;20033;-79
2022/10/13 00:09:51;;;;;;;26.52;11.88;;;;;;;10.01;100.00;101623.19;5025125;28;20087;-79
2022/10/13 00:12:16;;;;;;;29.90;11.70;;;;;;;9.92;100.00;101611.00;5036811;28;20101;-79
2022/10/13 00:14:42;;;;;;;28.05;12.00;;;;;;;10.00;100.00;101618.72;5048670;28;20059;-79
2022/10/13 00:17:07;;;;;;;26.40;10.93;;;;;;;10.05;100.00;101618.41;5023109;28;20052;-79
2022/10/13 00:19:33;;;;;;;28.65;12.10;;;;;;;10.06;100.00;101610.09;5039761;28;20041;-79
2022/10/13 00:21:58;;;;;;;26.23;11.85;;;;;;;10.11;100.00;101609.81;5019916;28;20040;-79
2022/10/13 00:24:24;;;;;;;28.02;11.30;;;;;;;10.14;100.00;101603.28;5054357;28;20083;-79
2022/10/13 00:26:51;;;;;;;23.95;11.07;;;;;;;10.20;100.00;101613.78;5055541;28;20400;-79
2022/10/13 00:29:17;;;;;;;23.55;12.30;;;;;;;10.19;100.00;101603.84;5057241;28;20492;-79
2022/10/13 00:31:42;;;;;;;24.45;11.88;;;;;;;10.25;100.00;101606.19;5040692;28;20029;-79
2022/10/13 00:34:07;;;;;;;32.58;12.18;;;;;;;10.23;100.00;101605.38;5057177;28;20029;-80
2022/10/13 00:36:33;;;;;;;26.63;11.50;;;;;;;10.23;100.00;101598.06;5038122;28;20432;-79
2022/10/13 00:38:58;;;;;;;20.30;11.98;;;;;;;10.28;100.00;101595.00;5057154;28;20031;-80
2022/10/13 00:41:24;;;;;;;27.38;12.05;;;;;;;10.33;100.00;101602.94;5035810;28;20036;-79
2022/10/13 00:44:05;;;;;;;22.75;12.05;;;;;;;10.38;100.00;101600.78;5052780;28;20037;-79
2022/10/13 00:46:35;;;;;;;27.30;12.88;;;;;;;10.39;100.00;101600.69;5053596;28;20029;-79
2022/10/13 00:49:13;;;;;;;25.85;12.10;;;;;;;10.43;100.00;101601.38;5056542;28;20040;-79
2022/10/13 00:51:42;;;;;;;23.85;12.13;;;;;;;10.40;100.00;101582.41;5057749;28;20057;-79
2022/10/13 00:54:10;;;;;;;28.92;12.07;;;;;;;10.44;100.00;101595.78;5056706;28;20084;-80
2022/10/13 00:56:37;;;;;;;41.03;14.90;;;;;;;10.48;100.00;101596.47;5059855;28;20036;-79
2022/10/13 00:59:08;;;;;;;25.70;12.55;;;;;;;10.46;100.00;101596.56;5042021;28;20070;-80
2022/10/13 01:01:34;;;;;;;30.15;13.20;;;;;;;10.45;100.00;101603.03;5020284;28;20040;-80
2022/10/13 01:04:00;;;;;;;25.48;12.32;;;;;;;10.53;100.00;101599.78;5029723;28;20041;-80
2022/10/13 01:06:26;;;;;;;23.85;11.55;;;;;;;10.55;100.00;101588.72;5039253;28;20369;-80
2022/10/13 01:08:53;;;;;;;26.33;11.80;;;;;;;10.59;100.00;101590.25;5040464;28;20117;-80
2022/10/13 01:11:18;;;;;;;22.83;10.65;;;;;;;10.61;100.00;101580.09;5057715;28;20033;-80
2022/10/13 01:14:21;;;;;;;27.05;11.77;;;;;;;10.59;100.00;101593.91;5039141;28;20368;-80
2022/10/13 01:16:46;;;;;;;20.80;11.57;;;;;;;10.63;100.00;101591.81;5044370;28;20045;-80
2022/10/13 01:19:21;;;;;;;26.67;11.57;;;;;;;10.62;100.00;101593.66;5056187;28;20035;-80
2022/10/13 01:21:52;;;;;;;27.17;12.80;;;;;;;10.65;100.00;101584.38;5038398;28;20033;-80
2022/10/13 01:24:38;;;;;;;27.80;12.10;;;;;;;10.68;100.00;101580.56;5059719;28;20028;-79
2022/10/13 01:27:41;;;;;;;28.65;11.82;;;;;;;10.71;100.00;101583.97;5044782;28;20041;-79
2022/10/13 01:30:13;;;;;;;31.80;12.52;;;;;;;10.73;100.00;101583.88;5043825;28;20086;-80
2022/10/13 01:32:57;;;;;;;22.90;11.73;;;;;;;10.73;100.00;101582.00;5071633;28;20035;-80
2022/10/13 01:35:32;;;;;;;24.48;11.10;;;;;;;10.78;100.00;101582.56;5059002;28;20322;-80
2022/10/13 01:38:25;;;;;;;25.67;11.98;;;;;;;10.78;100.00;101581.69;5063072;28;20098;-81
2022/10/13 01:40:59;;;;;;;23.73;11.80;;;;;;;10.82;100.00;101578.63;5039100;28;20040;-80
2022/10/13 01:43:35;;;;;;;24.35;12.25;;;;;;;10.79;100.00;101576.09;5055781;28;20447;-80
2022/10/13 01:46:07;;;;;;;28.33;11.73;;;;;;;10.81;100.00;101579.59;5068107;28;20437;-80
2022/10/13 01:48:36;;;;;;;23.35;11.57;;;;;;;10.81;100.00;101579.59;5034420;28;20067;-80
2022/10/13 01:51:05;;;;;;;29.08;11.68;;;;;;;10.78;100.00;101566.13;5056338;28;20051;-81
2022/10/13 01:53:31;;;;;;;33.70;11.30;;;;;;;10.83;100.00;101577.63;5038861;28;20032;-80
2022/10/13 01:55:58;;;;;;;26.02;11.40;;;;;;;10.83;100.00;101576.75;5036930;28;20060;-81
2022/10/13 01:58:28;;;;;;;24.77;12.00;;;;;;;10.85;100.00;101580.25;5055083;28;20456;-80
2022/10/13 02:01:28;;;;;;;26.23;12.20;;;;;;;10.85;100.00;101567.47;5055762;28;20060;-81
2022/10/13 02:04:02;;;;;;;26.30;12.13;;;;;;;10.86;100.00;101571.06;5037184;28;20032;-80
2022/10/13 02:06:50;;;;;;;27.15;12.05;;;;;;;10.88;100.00;101566.34;5066246;28;20418;-80
2022/10/13 02:09:37;;;;;;;23.33;11.63;;;;;;;10.86;100.00;101557.38;5056713;28;20098;-80
2022/10/13 02:12:11;;;;;;;29.50;12.02;;;;;;;10.88;100.00;101549.06;5055495;28;20044;-79
2022/10/13 02:14:40;;;;;;;30.80;12.05;;;;;;;10.88;100.00;101555.41;5054252;28;20048;-78
2022/10/13 02:17:06;;;;;;;25.88;11.75;;;;;;;10.92;100.00;101551.47;5052822;28;20025;-79
2022/10/13 02:19:35;;;;;;;23.48;12.23;;;;;;;10.91;100.00;101544.22;5055005;28;20365;-79
2022/10/13 02:22:02;;;;;;;30.23;12.20;;;;;;;10.86;100.00;101551.91;5054920;28;20469;-79
2022/10/13 02:24:28;;;;;;;29.48;12.45;;;;;;;10.85;100.00;101555.59;5054090;28;20045;-79
2022/10/13 02:26:53;;;;;;;20.20;11.88;;;;;;;10.84;100.00;101543.78;5055506;28;20063;-79
2022/10/13 02:29:19;;;;;;;25.52;12.00;;;;;;;10.89;100.00;101537.09;5054388;28;20036;-79
2022/10/13 02:31:46;;;;;;;25.40;11.80;;;;;;;10.83;100.00;101522.84;5033165;28;20032;-79
2022/10/13 02:34:12;;;;;;;23.73;11.85;;;;;;;10.88;100.00;101529.88;5058377;28;20037;-79
2022/10/13 02:36:38;;;;;;;29.98;11.23;;;;;;;10.90;100.00;101531.50;5054766;28;20140;-78
2022/10/13 02:39:08;;;;;;;26.60;11.90;;;;;;;10.88;100.00;101527.13;5053640;28;20484;-79
2022/10/13 02:41:34;;;;;;;20.35;11.02;;;;;;;10.84;100.00;101527.34;5053876;28;20048;-78
2022/10/13 02:43:59;;;;;;;22.00;12.38;;;;;;;10.81;100.00;101523.94;5053127;28;20542;-78
2022/10/13 02:46:25;;;;;;;28.95;12.23;;;;;;;10.78;100.00;101530.50;5054370;28;20051;-79
2022/10/13 02:48:50;;;;;;;30.85;12.07;;;;;;;10.79;100.00;101525.91;5054666;28;20053;-79
2022/10/13 02:51:16;;;;;;;24.88;12.13;;;;;;;10.76;100.00;101524.25;5037563;28;20044;-79
2022/10/13 02:53:41;;;;;;;26.58;11.98;;;;;;;10.76;100.00;101524.25;5059687;28;20033;-80
2022/10/13 02:56:07;;;;;;;27.38;11.75;;;;;;;10.74;100.00;101522.59;5039092;28;20032;-80
2022/10/13 02:58:33;;;;;;;26.55;12.52;;;;;;;10.83;100.00;101528.31;5060479;28;20080;-78
2022/10/13 03:01:13;;;;;;;27.52;12.90;;;;;;;10.78;100.00;101515.94;5060918;28;20035;-78
2022/10/13 03:03:39;;;;;;;29.25;12.73;;;;;;;10.78;100.00;101522.28;5052797;28;20062;-78
2022/10/13 03:06:05;;;;;;;23.52;11.85;;;;;;;10.76;100.00;101515.19;5076947;28;20037;-78
2022/10/13 03:08:32;;;;;;;28.75;12.23;;;;;;;10.74;100.00;101512.53;5057853;28;20078;-78
2022/10/13 03:10:58;;;;;;;33.63;12.00;;;;;;;10.76;100.00;101516.03;5043061;28;20476;-78
2022/10/13 03:13:23;;;;;;;33.70;13.02;;;;;;;10.74;100.00;101509.81;5056491;28;20131;-78
2022/10/13 03:15:49;;;;;;;28.40;12.95;;;;;;;10.76;100.00;101505.09;5056268;28;20065;-78
2022/10/13 03:18:15;;;;;;;27.70;12.93;;;;;;;10.71;100.00;101504.53;5053959;28;20041;-78
2022/10/13 03:20:40;;;;;;;25.95;12.27;;;;;;;10.76;100.00;101512.44;5059954;28;20033;-78
2022/10/13 03:23:06;;;;;;;25.35;12.23;;;;;;;10.72;100.00;101502.66;5058966;28;20033;-79
2022/10/13 03:25:33;;;;;;;30.15;13.18;;;;;;;10.71;100.00;101514.59;5070712;28;20053;-78
2022/10/13 03:27:58;;;;;;;28.05;13.27;;;;;;;10.72;100.00;101502.66;5056975;28;20029;-78
2022/10/13 03:30:25;;;;;;;33.20;12.57;;;;;;;10.70;100.00;101504.66;5039833;28;20059;-78
2022/10/13 03:32:50;;;;;;;28.05;13.15;;;;;;;10.71;100.00;101510.00;5057807;28;20062;-78
2022/10/13 03:35:16;;;;;;;23.10;12.75;;;;;;;10.71;100.00;101504.53;5060284;28;20499;-78
2022/10/13 03:37:41;;;;;;;25.42;12.35;;;;;;;10.73;100.00;101505.31;5070124;28;20024;-79
2022/10/13 03:40:07;;;;;;;27.25;12.30;;;;;;;10.76;100.00;101505.09;5040045;28;20079;-80
2022/10/13 03:42:36;;;;;;;28.48;13.18;;;;;;;10.75;100.00;101496.97;5058862;28;20032;-79
2022/10/13 03:45:03;;;;;;;32.60;13.77;;;;;;;10.79;100.00;101496.66;5069143;28;20048;-78
2022/10/13 03:47:28;;;;;;;30.73;12.85;;;;;;;10.76;100.00;101488.66;5057497;28;20099;-78
2022/10/13 03:49:54;;;;;;;23.88;12.80;;;;;;;10.83;100.00;101491.84;5054248;28;20041;-78
2022/10/13 03:52:20;;;;;;;27.92;13.10;;;;;;;10.82;100.00;101485.50;5036980;28;20124;-79
2022/10/13 03:54:45;;;;;;;28.85;12.93;;;;;;;10.81;100.00;101477.38;5068016;28;20480;-78
2022/10/13 03:57:11;;;;;;;27.45;13.07;;;;;;;10.83;100.00;101483.63;5067074;28;20041;-78
2022/10/13 03:59:39;;;;;;;28.48;12.85;;;;;;;10.83;100.00;101480.88;5065936;28;20028;-78
2022/10/13 04:02:05;;;;;;;28.38;13.05;;;;;;;10.85;100.00;101479.81;5055443;28;20401;-77
2022/10/13 04:04:30;;;;;;;28.80;12.85;;;;;;;10.85;100.00;101474.31;5054869;28;20069;-78
2022/10/13 04:06:55;;;;;;;26.48;12.32;;;;;;;10.84;100.00;101471.69;5037589;28;20060;-77
2022/10/13 04:09:21;;;;;;;35.78;13.10;;;;;;;10.96;100.00;101469.94;5038488;28;20041;-78
2022/10/13 04:11:50;;;;;;;31.70;12.52;;;;;;;10.89;100.00;101465.84;5038786;28;20044;-77
2022/10/13 04:14:15;;;;;;;33.95;13.02;;;;;;;10.93;100.00;101476.50;5056480;28;20115;-77
2022/10/13 04:16:40;;;;;;;31.00;13.68;;;;;;;10.89;100.00;101479.56;5055220;28;20083;-78
2022/10/13 04:19:06;;;;;;;26.23;12.68;;;;;;;10.85;100.00;101477.06;5037776;28;20025;-78
2022/10/13 04:21:34;;;;;;;27.90;13.48;;;;;;;10.85;100.00;101474.31;5054347;28;20060;-78
2022/10/13 04:24:00;;;;;;;23.98;12.45;;;;;;;10.90;100.00;101475.84;5064841;28;20393;-78
2022/10/13 04:26:28;;;;;;;27.77;13.38;;;;;;;10.86;100.00;101464.22;5055366;28;20064;-78
2022/10/13 04:28:55;;;;;;;30.20;13.43;;;;;;;10.90;100.00;101462.16;5054828;28;20029;-79
2022/10/13 04:31:22;;;;;;;26.33;13.43;;;;;;;10.88;100.00;101461.38;5054570;28;20048;-78
2022/10/13 04:33:48;;;;;;;31.08;13.80;;;;;;;10.88;100.00;101461.38;5057446;28;20029;-78
2022/10/13 04:36:15;;;;;;;31.70;12.55;;;;;;;10.85;100.00;101459.72;5054587;28;20469;-80
2022/10/13 04:38:41;;;;;;;30.63;13.82;;;;;;;10.87;100.00;101457.78;5054217;28;20032;-79
2022/10/13 04:41:08;;;;;;;28.70;13.57;;;;;;;10.85;100.00;101455.16;5054466;28;20049;-78
2022/10/13 04:43:34;;;;;;;26.70;13.10;;;;;;;10.85;100.00;101454.25;5054395;28;20041;-78
2022/10/13 04:46:05;;;;;;;32.67;13.75;;;;;;;10.85;100.00;101457.00;5063934;28;20345;-78
2022/10/13 04:48:30;;;;;;;26.50;14.10;;;;;;;10.85;100.00;101459.72;5039818;28;20072;-78
2022/10/13 04:51:08;;;;;;;35.13;13.68;;;;;;;10.91;100.00;101448.34;5055382;28;20053;-79
2022/10/13 04:53:34;;;;;;;33.75;13.55;;;;;;;10.93;100.00;101451.84;5066299;28;20068;-77
2022/10/13 04:56:02;;;;;;;32.15;14.13;;;;;;;10.97;100.00;101449.75;5055393;28;20029;-80
2022/10/13 04:58:28;;;;;;;29.55;14.27;;;;;;;10.95;100.00;101444.41;5051390;28;20029;-78
2022/10/13 05:00:54;;;;;;;32.20;14.30;;;;;;;10.97;100.00;101436.06;5056784;28;20094;-79
2022/10/13 05:03:19;;;;;;;28.50;14.15;;;;;;;10.98;100.00;101438.69;5040365;28;20028;-79
2022/10/13 05:05:44;;;;;;;29.42;14.88;;;;;;;10.99;100.00;101431.38;5023496;28;20087;-79
2022/10/13 05:08:10;;;;;;;26.73;14.45;;;;;;;11.01;100.00;101434.88;5040328;28;20071;-79
2022/10/13 05:10:36;;;;;;;26.30;13.10;;;;;;;11.02;100.00;101429.28;5058342;28;20055;-78
2022/10/13 05:13:01;;;;;;;34.05;14.80;;;;;;;10.98;100.00;101430.47;5072425;28;20041;-78
2022/10/13 05:15:27;;;;;;;29.58;14.07;;;;;;;11.01;100.00;101419.28;5051324;28;20553;-80
2022/10/13 05:17:52;;;;;;;30.73;14.18;;;;;;;11.02;100.00;101434.75;5039777;28;20036;-79
2022/10/13 05:20:18;;;;;;;31.67;14.55;;;;;;;11.07;100.00;101439.91;5054153;28;20060;-79
2022/10/13 05:22:43;;;;;;;28.88;13.38;;;;;;;11.07;100.00;101426.22;5056418;28;20369;-79
2022/10/13 05:25:09;;;;;;;31.17;14.98;;;;;;;11.08;100.00;101429.81;5039616;28;20037;-79
2022/10/13 05:27:35;;;;;;;30.70;13.35;;;;;;;11.12;100.00;101434.09;5054342;28;20033;-79
2022/10/13 05:30:00;;;;;;;36.03;15.65;;;;;;;11.10;100.00;101428.72;5038144;28;20049;-79
2022/10/13 05:32:26;;;;;;;37.22;14.48;;;;;;;11.15;100.00;101434.75;5022676;28;20043;-79
2022/10/13 05:34:51;;;;;;;32.10;15.25;;;;;;;11.11;100.00;101438.69;5055538;28;20045;-79
2022/10/13 05:37:17;;;;;;;41.80;14.73;;;;;;;11.14;100.00;101432.13;5035186;28;20062;-79
2022/10/13 05:39:43;;;;;;;30.48;14.48;;;;;;;11.14;100.00;101434.88;5038223;28;20504;-78
2022/10/13 05:42:09;;;;;;;35.97;15.20;;;;;;;11.10;100.00;101441.53;5055257;28;20040;-79
2022/10/13 05:44:35;;;;;;;27.70;14.32;;;;;;;11.15;100.00;101458.53;5057239;28;20410;-79
2022/10/13 05:47:01;;;;;;;39.88;14.80;;;;;;;11.18;100.00;101441.84;5039612;28;20092;-78
2022/10/13 05:49:26;;;;;;;28.95;14.23;;;;;;;11.17;100.00;101441.00;5072459;28;20052;-79
2022/10/13 05:51:56;;;;;;;31.42;13.98;;;;;;;11.19;100.00;101433.53;5071130;28;20036;-79
2022/10/13 05:54:32;;;;;;;38.80;15.43;;;;;;;11.18;100.00;101445.50;5054458;28;20044;-79
2022/10/13 05:57:09;;;;;;;33.75;16.02;;;;;;;11.20;100.00;101439.91;5056317;28;20025;-79
2022/10/13 05:59:40;;;;;;;33.58;14.60;;;;;;;11.20;100.00;101440.78;5056051;28;20122;-79
2022/10/13 06:02:08;;;;;;;36.63;15.10;;;;;;;11.20;100.00;101446.25;5053378;28;20024;-79
2022/10/13 06:04:38;;;;;;;35.33;16.55;;;;;;;11.15;100.00;101448.47;5036452;28;20060;-79
2022/10/13 06:07:04;;;;;;;28.67;14.75;;;;;;;11.18;100.00;101445.50;5071291;28;20397;-80
2022/10/13 06:09:36;;;;;;;38.58;15.55;;;;;;;11.18;100.00;101439.13;5055437;28;20033;-79
2022/10/13 06:12:03;;;;;;;32.22;14.75;;;;;;;11.19;100.00;101446.38;5039793;28;20052;-79
2022/10/13 06:14:29;;;;;;;35.28;15.02;;;;;;;11.22;100.00;101443.41;5054333;28;20045;-79
2022/10/13 06:16:54;;;;;;;32.20;15.43;;;;;;;11.22;100.00;101440.66;5056258;28;20099;-79
2022/10/13 06:19:19;;;;;;;37.90;15.48;;;;;;;11.26;100.00;101441.31;5039558;28;20037;-79
2022/10/13 06:21:45;;;;;;;28.17;14.68;;;;;;;11.25;100.00;101442.28;5022830;28;20033;-79
2022/10/13 06:24:10;;;;;;;37.50;16.23;;;;;;;11.28;100.00;101418.28;5038757;28;20400;-79
2022/10/13 06:26:36;;;;;;;39.50;16.08;;;;;;;11.29;100.00;101425.50;5035357;28;20049;-78
2022/10/13 06:29:01;;;;;;;29.13;14.27;;;;;;;11.31;100.00;101430.88;5044010;28;20037;-78
2022/10/13 06:31:26;;;;;;;40.47;16.40;;;;;;;11.33;100.00;101418.84;5035263;28;20025;-79
2022/10/13 06:33:52;;;;;;;28.70;15.13;;;;;;;11.35;100.00;101422.31;5036684;28;20042;-78
2022/10/13 06:36:17;;;;;;;34.33;15.27;;;;;;;11.37;100.00;101431.31;5054142;28;20037;-78
2022/10/13 06:38:43;;;;;;;41.50;16.17;;;;;;;11.36;100.00;101423.19;5039181;28;20125;-79
2022/10/13 06:41:08;;;;;;;41.63;16.33;;;;;;;11.37;100.00;101427.69;5064961;28;20508;-78
2022/10/13 06:43:34;;;;;;;34.85;15.63;;;;;;;11.40;100.00;101427.47;5038334;28;20096;-78
2022/10/13 06:46:00;;;;;;;30.90;15.60;;;;;;;11.39;100.00;101423.84;5058177;28;20096;-79
2022/10/13 06:48:27;;;;;;;30.20;15.23;;;;;;;11.44;100.00;101436.34;5043275;28;20396;-79
2022/10/13 06:50:52;;;;;;;37.70;17.08;;;;;;;11.42;100.00;101427.38;5041294;28;20020;-79
2022/10/13 06:53:18;;;;;;;33.33;16.02;;;;;;;11.46;100.00;101435.25;5026599;28;20044;-78
2022/10/13 06:55:44;;;;;;;40.75;16.52;;;;;;;11.48;100.00;101421.41;5060515;28;20055;-78
2022/10/13 06:58:09;;;;;;;36.17;15.27;;;;;;;11.52;100.00;101414.72;5048011;28;20112;-79
2022/10/13 07:00:36;;;;;;;34.55;14.50;;;;;;;11.52;100.00;101409.25;5043892;28;20100;-79
2022/10/13 07:03:02;;;;;;;38.65;15.75;;;;;;;11.55;100.00;101414.50;5060444;28;20040;-79
2022/10/13 07:05:28;;;;;;;40.30;16.42;;;;;;;11.51;100.00;101421.19;5061345;28;20063;-79
2022/10/13 07:07:54;;;;;;;31.63;15.35;;;;;;;11.50;100.00;101414.84;5042045;28;20057;-78
2022/10/13 07:10:19;;;;;;;36.35;16.10;;;;;;;11.53;100.00;101414.59;5060325;28;20086;-79
2022/10/13 07:12:45;;;;;;;34.95;16.67;;;;;;;11.54;100.00;101420.97;5041777;28;20044;-78
2022/10/13 07:15:10;;;;;;;30.08;16.02;;;;;;;11.59;100.00;101418.75;5057078;28;20048;-80
2022/10/13 07:17:36;;;;;;;33.75;16.60;;;;;;;11.65;100.00;101423.78;5036966;28;20400;-79
2022/10/13 07:20:03;;;;;;;40.85;17.67;;;;;;;11.69;100.00;101421.69;5039990;28;20045;-80
2022/10/13 07:22:30;;;;;;;37.38;16.92;;;;;;;11.73;100.00;101428.72;5049677;28;20065;-80
2022/10/13 07:24:55;;;;;;;36.80;17.73;;;;;;;11.81;100.00;101428.13;5039308;28;20048;-79
2022/10/13 07:27:21;;;;;;;39.65;17.58;;;;;;;11.80;100.00;101432.72;5057497;28;20078;-80
2022/10/13 07:29:46;;;;;;;35.30;17.80;;;;;;;11.84;100.00;101426.03;5057443;28;20104;-79
2022/10/13 07:32:12;;;;;;;39.13;19.25;;;;;;;11.86;100.00;101431.41;5057003;28;20040;-79
2022/10/13 07:34:37;;;;;;;37.88;17.50;;;;;;;11.84;100.00;101433.38;5041334;28;20119;-79
2022/10/13 07:37:02;;;;;;;38.63;17.58;;;;;;;11.81;100.00;101428.13;5027891;28;20037;-79
2022/10/13 07:39:28;;;;;;;44.25;19.92;;;;;;;11.81;100.00;101428.13;5055568;28;20041;-80
2022/10/13 07:41:53;;;;;;;42.92;18.98;;;;;;;11.79;100.00;101428.25;5058452;28;20033;-79
2022/10/13 07:44:19;;;;;;;46.25;20.60;;;;;;;11.78;100.00;101438.31;5059704;28;20447;-79
2022/10/13 07:46:44;;;;;;;46.67;20.42;;;;;;;11.78;100.00;101430.09;5059461;28;20106;-79
2022/10/13 07:49:09;;;;;;;43.60;19.27;;;;;;;11.82;100.00;101418.91;5040095;28;20043;-78
2022/10/13 07:51:35;;;;;;;55.55;20.42;;;;;;;11.84;100.00;101428.78;5059630;28;20135;-78
2022/10/13 07:54:00;;;;;;;43.25;19.75;;;;;;;11.84;100.00;101428.78;5057839;28;20040;-79
2022/10/13 07:56:26;;;;;;;48.85;18.73;;;;;;;11.84;100.00;101427.88;5040014;28;20033;-79
2022/10/13 07:58:51;;;;;;;42.13;18.60;;;;;;;11.91;100.00;101423.69;5039596;28;20505;-78
2022/10/13 08:01:17;;;;;;;39.72;18.63;;;;;;;11.97;100.00;101434.25;5039930;28;20068;-79
2022/10/13 08:03:44;;;;;;;36.22;18.33;;;;;;;12.06;100.00;101429.91;5056908;28;20515;-78
2022/10/13 08:06:09;;;;;;;39.20;18.55;;;;;;;12.10;100.00;101424.09;5055000;28;20098;-78
2022/10/13 08:08:35;;;;;;;40.38;19.02;;;;;;;12.18;100.00;101415.25;5056839;28;20108;-79
2022/10/13 08:11:10;;;;;;;41.25;18.48;;;;;;;12.36;100.00;101428.56;5056154;28;20120;-78
2022/10/13 08:13:35;;;;;;;50.85;18.75;;;;;;;12.53;100.00;101425.38;5056091;28;20036;-78
2022/10/13 08:16:02;;;;;;;44.85;17.70;;;;;;;12.59;100.00;101419.41;5056448;28;20051;-79
2022/10/13 08:18:28;;;;;;;34.25;17.90;;;;;;;12.83;100.00;101427.56;5055607;28;20028;-78
2022/10/13 08:20:53;;;;;;;45.35;17.80;;;;;;;13.03;100.00;101431.44;5055512;28;20085;-78
2022/10/13 08:23:19;;;;;;;36.83;16.30;;;;;;;13.15;100.00;101426.88;5054048;28;20061;-79
2022/10/13 08:25:44;;;;;;;31.00;16.27;;;;;;;13.29;100.00;101422.97;5039216;28;20043;-79
2022/10/13 08:28:17;;;;;;;37.58;16.85;;;;;;;13.23;100.00;101415.22;5057679;28;20040;-79
2022/10/13 08:30:43;;;;;;;35.22;16.33;;;;;;;13.10;100.00;101423.63;5056271;28;20116;-79
2022/10/13 08:33:09;;;;;;;42.90;16.30;;;;;;;13.08;100.00;101421.97;5056586;28;20113;-78
2022/10/13 08:35:34;;;;;;;35.85;16.20;;;;;;;13.15;100.00;101414.97;5054649;28;20470;-79
2022/10/13 08:38:00;;;;;;;34.17;15.65;;;;;;;13.17;100.00;101424.84;5058483;28;20392;-79
2022/10/13 08:40:25;;;;;;;28.90;16.17;;;;;;;13.27;100.00;101424.97;5038596;28;20065;-78
2022/10/13 08:42:51;;;;;;;37.20;16.60;;;;;;;13.29;100.00;101409.22;5055067;28;20041;-79
2022/10/13 08:45:25;;;;;;;31.85;15.00;;;;;;;13.35;100.00;101413.41;5057622;28;20062;-79
2022/10/13 08:47:58;;;;;;;27.90;14.65;;;;;;;13.38;100.00;101411.25;5057100;28;20040;-78
2022/10/13 08:50:30;;;;;;;32.17;14.23;;;;;;;13.45;100.00;101413.53;5055248;28;20445;-79
2022/10/13 08:53:00;;;;;;;28.48;14.90;;;;;;;13.41;100.00;101416.53;5055312;28;20036;-79
2022/10/13 08:55:33;;;;;;;37.17;15.45;;;;;;;13.38;100.00;101407.63;5037819;28;20075;-79
2022/10/13 08:58:01;;;;;;;31.50;16.10;;;;;;;13.53;100.00;101416.50;5055463;28;20036;-80
2022/10/13 09:00:28;;;;;;;29.60;15.38;;;;;;;13.58;100.00;101408.75;5057486;28;20079;-81
2022/10/13 09:03:05;;;;;;;28.63;15.45;;;;;;;13.66;100.00;101402.56;5038253;28;20088;-78
2022/10/13 09:05:41;;;;;;;28.98;15.18;;;;;;;13.62;100.00;101387.34;5053537;28;20087;-78
2022/10/13 09:08:15;;;;;;;29.52;15.82;;;;;;;13.67;100.00;101399.69;5047738;28;20044;-78
2022/10/13 09:10:48;;;;;;;34.35;15.57;;;;;;;13.71;100.00;101403.09;5038631;28;20036;-78
2022/10/13 09:13:13;;;;;;;30.52;14.57;;;;;;;13.99;100.00;101409.91;5054169;28;20045;-78
2022/10/13 09:15:47;;;;;;;30.45;15.75;;;;;;;13.97;100.00;101400.91;5035651;28;20060;-78
2022/10/13 09:18:13;;;;;;;31.08;15.93;;;;;;;14.00;100.00;101397.84;5050946;28;20057;-79
2022/10/13 09:20:39;;;;;;;35.83;16.20;;;;;;;13.87;100.00;101399.91;5052695;28;20114;-78
2022/10/13 09:23:06;;;;;;;38.08;16.90;;;;;;;13.79;100.00;101395.06;5049226;28;20041;-78
2022/10/13 09:25:41;;;;;;;30.05;14.85;;;;;;;13.75;100.00;101396.31;5053463;28;20036;-78
2022/10/13 09:28:21;;;;;;;28.10;14.93;;;;;;;13.77;100.00;101395.19;5038318;28;20051;-78
2022/10/13 09:30:47;;;;;;;30.75;15.00;;;;;;;13.82;100.00;101385.66;5052892;28;20057;-78
2022/10/13 09:33:23;;;;;;;34.40;15.82;;;;;;;13.83;100.00;101399.28;5036672;28;20088;-78
2022/10/13 09:35:48;;;;;;;31.17;14.98;;;;;;;13.84;100.00;101400.16;5054282;28;20037;-78
2022/10/13 09:38:23;;;;;;;25.40;14.45;;;;;;;13.99;100.00;101401.63;5057237;28;20059;-78
2022/10/13 09:41:00;;;;;;;32.60;14.10;;;;;;;14.06;100.00;101393.72;5055667;28;20473;-78
2022/10/13 09:43:32;;;;;;;34.05;15.05;;;;;;;14.09;100.00;101397.09;5038067;28;20128;-78
2022/10/13 09:45:58;;;;;;;;;;;;;;;14.14;100.00;101394.81;5054212;28;20035;-78
2022/10/13 09:48:33;;;;;;;28.17;14.20;;;;;;;14.13;100.00;101390.31;5054238;28;19920;-78
2022/10/13 09:50:59;;;;;;;28.10;13.93;;;;;;;14.14;100.00;101386.53;5047872;28;20029;-79
2022/10/13 09:53:38;;;;;;;39.67;14.10;;;;;;;14.08;100.00;101377.94;5047582;28;20404;-78
2022/10/13 09:56:13;;;;;;;29.42;13.38;;;;;;;14.09;100.00;101377.81;5054075;28;20465;-78
2022/10/13 09:58:47;;;;;;;28.88;13.27;;;;;;;14.04;100.00;101369.06;5034846;28;20029;-78
2022/10/13 10:01:26;;;;;;;31.17;13.43;;;;;;;14.12;100.00;101379.44;5051384;28;20439;-78
2022/10/13 10:03:53;;;;;;;22.70;13.35;;;;;;;14.21;100.00;101375.00;5035776;28;20037;-78
2022/10/13 10:06:19;;;;;;;24.58;11.75;;;;;;;14.26;100.00;101373.59;5044355;28;20039;-78
2022/10/13 10:09:02;;;;;;;27.63;12.68;;;;;;;14.26;100.00;101378.22;5054729;28;20033;-78
2022/10/13 10:11:40;;;;;;;28.05;13.07;;;;;;;14.33;100.00;101368.41;5054720;28;20462;-78
2022/10/13 10:14:26;;;;;;;29.77;11.77;;;;;;;14.45;100.00;101374.75;5050431;28;20041;-78
2022/10/13 10:17:08;;;;;;;28.60;11.90;;;;;;;14.43;100.00;101372.16;5045983;28;20041;-78
2022/10/13 10:19:49;;;;;;;25.75;10.98;;;;;;;14.43;100.00;101366.63;5057286;28;20119;-77
2022/10/13 10:22:32;;;;;;;19.80;10.95;;;;;;;14.48;100.00;101356.06;5056499;28;20045;-77
2022/10/13 10:25:19;;;;;;;22.92;11.13;;;;;;;14.64;100.00;101352.88;5056339;28;20512;-78
2022/10/13 10:28:02;;;;;;;22.45;11.00;;;;;;;14.64;100.00;101363.00;5057261;28;20043;-78
2022/10/13 10:30:29;;;;;;;23.63;11.07;;;;;;;14.69;100.00;101369.00;5057356;28;20029;-77
2022/10/13 10:33:01;;;;;;;22.08;10.85;;;;;;;14.69;100.00;101369.00;5057855;28;20083;-77
2022/10/13 10:36:01;;;;;;;18.27;10.47;;;;;;;14.67;100.00;101362.75;5057641;28;20424;-77
2022/10/13 10:38:39;;;;;;;23.30;10.23;;;;;;;14.61;100.00;101366.03;5056118;28;20025;-78
2022/10/13 10:41:37;;;;;;;22.40;9.68;;;;;;;14.59;100.00;101360.66;5039627;28;20041;-77
2022/10/13 10:44:13;;;;;;;20.35;9.73;;;;;;;14.61;100.00;101366.94;5054607;28;20037;-77
2022/10/13 10:46:47;;;;;;;23.15;9.00;;;;;;;14.63;100.00;101364.03;5051255;28;20056;-77
2022/10/13 10:49:39;;;;;;;16.17;8.05;;;;;;;14.62;100.00;101357.63;5059029;28;20060;-77
2022/10/13 10:52:07;;;;;;;14.35;7.88;;;;;;;14.60;100.00;101367.06;5069702;28;20102;-78
2022/10/13 10:54:42;;;;;;;13.65;7.63;;;;;;;14.59;100.00;101362.50;5057070;28;20032;-78
2022/10/13 10:57:34;;;;;;;19.98;8.80;;;;;;;14.56;100.00;101357.28;5057702;28;20063;-77
2022/10/13 11:00:08;;;;;;;21.98;8.60;;;;;;;14.40;100.00;101355.00;5053559;28;20025;-78
2022/10/13 11:02:40;;;;;;;19.50;8.70;;;;;;;14.40;100.00;101347.63;5072522;28;20040;-78
2022/10/13 11:05:05;;;;;;;20.85;9.85;;;;;;;14.43;100.00;101350.09;5043451;28;20068;-78
2022/10/13 11:07:31;;;;;;;23.73;10.13;;;;;;;14.27;100.00;101344.19;5056318;28;20086;-77
2022/10/13 11:10:00;;;;;;;21.38;11.55;;;;;;;14.27;100.00;101335.91;5055886;28;20460;-77